createdAt,value
2018-11-21T00:00:03.601Z,17.70
2018-11-21T00:03:04.956Z,16.40
2018-11-21T00:06:06.567Z,20.40
2018-11-21T00:09:07.466Z,23.07
2018-11-21T00:12:08.426Z,18.42
2018-11-21T00:15:10.649Z,20.25
2018-11-21T00:18:12.190Z,22.80
2018-11-21T00:24:20.227Z,15.95
2018-11-21T00:27:21.745Z,17.02
2018-11-21T00:30:22.795Z,22.58
2018-11-21T00:33:24.206Z,22.75
2018-11-21T00:36:25.044Z,21.52
2018-11-21T00:39:26.489Z,18.55
2018-11-21T00:42:31.478Z,17.52
2018-11-21T00:45:32.764Z,21.80
2018-11-21T00:48:33.690Z,18.02
2018-11-21T00:54:41.942Z,18.57
2018-11-21T00:57:43.391Z,18.57
2018-11-21T01:00:48.701Z,17.23
2018-11-21T01:03:50.190Z,17.70
2018-11-21T01:10:03.988Z,17.45
2018-11-21T01:13:05.497Z,23.10
2018-11-21T01:16:05.290Z,18.75
2018-11-21T01:19:13.645Z,13.85
2018-11-21T01:25:21.793Z,19.17
2018-11-21T01:28:23.394Z,18.60
2018-11-21T01:31:24.161Z,20.50
2018-11-21T01:34:24.974Z,15.25
2018-11-21T01:37:26.297Z,18.35
2018-11-21T01:40:27.367Z,19.65
2018-11-21T01:43:27.293Z,13.80
2018-11-21T01:46:28.427Z,15.95
2018-11-21T01:49:29.738Z,22.62
2018-11-21T01:55:37.635Z,21.45
2018-11-21T01:58:39.129Z,15.68
2018-11-21T02:01:40.263Z,21.73
2018-11-21T02:04:41.324Z,19.45
2018-11-21T02:07:44.364Z,18.70
2018-11-21T02:10:43.735Z,18.45
2018-11-21T02:13:45.290Z,18.85
2018-11-21T02:19:53.440Z,16.97
2018-11-21T02:26:00.891Z,15.08
2018-11-21T02:29:02.245Z,16.90
2018-11-21T02:32:03.619Z,18.77
2018-11-21T02:35:04.202Z,17.62
2018-11-21T02:38:05.469Z,17.00
2018-11-21T02:41:07.260Z,16.62
2018-11-21T02:44:08.765Z,14.43
2018-11-21T02:47:10.087Z,13.18
2018-11-21T02:50:10.960Z,18.75
2018-11-21T02:56:18.693Z,16.82
2018-11-21T02:59:20.073Z,14.45
2018-11-21T03:02:21.174Z,17.57
2018-11-21T03:05:22.781Z,17.00
2018-11-21T03:08:23.798Z,18.45
2018-11-21T03:11:24.829Z,17.32
2018-11-21T03:14:26.673Z,13.10
2018-11-21T03:17:28.059Z,13.70
2018-11-21T03:20:28.920Z,10.55
2018-11-21T03:26:36.636Z,17.82
2018-11-21T03:29:38.164Z,13.83
2018-11-21T03:32:39.587Z,15.38
2018-11-21T03:35:40.544Z,13.48
2018-11-21T03:38:41.774Z,11.90
2018-11-21T03:41:42.818Z,17.23
2018-11-21T03:44:44.007Z,14.47
2018-11-21T03:47:46.071Z,13.60
2018-11-21T03:50:47.752Z,13.22
2018-11-21T03:53:54.962Z,14.20
2018-11-21T03:56:57.013Z,13.53
2018-11-21T03:59:58.433Z,11.07
2018-11-21T04:02:59.475Z,15.67
2018-11-21T04:06:01.056Z,16.07
2018-11-21T04:09:02.513Z,13.17
2018-11-21T04:12:04.283Z,14.93
2018-11-21T04:15:05.821Z,15.10
2018-11-21T04:18:07.276Z,14.40
2018-11-21T04:21:09.160Z,11.57
2018-11-21T04:27:16.762Z,12.70
2018-11-21T04:30:18.289Z,11.83
2018-11-21T04:33:19.576Z,9.73
2018-11-21T04:36:20.935Z,12.53
2018-11-21T04:39:21.940Z,15.83
2018-11-21T04:42:23.067Z,16.00
2018-11-21T04:45:24.354Z,10.80
2018-11-21T04:48:25.263Z,12.23
2018-11-21T04:51:26.849Z,12.37
2018-11-21T04:57:34.882Z,13.10
2018-11-21T05:00:36.588Z,11.83
2018-11-21T05:03:38.247Z,12.80
2018-11-21T05:06:39.445Z,11.40
2018-11-21T05:09:40.148Z,9.93
2018-11-21T05:12:41.469Z,8.47
2018-11-21T05:15:42.918Z,13.80
2018-11-21T05:18:44.473Z,13.07
2018-11-21T05:21:46.015Z,13.20
2018-11-21T05:27:53.553Z,11.13
2018-11-21T05:30:54.871Z,10.33
2018-11-21T05:33:55.966Z,10.93
2018-11-21T05:36:57.542Z,11.93
2018-11-21T05:39:58.471Z,12.13
2018-11-21T05:42:59.690Z,12.57
2018-11-21T05:46:00.843Z,11.30
2018-11-21T05:49:02.505Z,10.87
2018-11-21T05:52:03.973Z,12.23
2018-11-21T05:58:12.428Z,9.80
2018-11-21T06:01:14.230Z,12.17
2018-11-21T06:04:15.935Z,9.93
2018-11-21T06:07:17.010Z,9.53
2018-11-21T06:10:18.561Z,12.93
2018-11-21T06:13:19.612Z,9.90
2018-11-21T06:16:20.901Z,11.73
2018-11-21T06:19:22.318Z,15.57
2018-11-21T06:22:23.972Z,11.47
2018-11-21T06:28:31.651Z,9.83
2018-11-21T06:31:33.255Z,10.03
2018-11-21T06:34:34.761Z,10.67
2018-11-21T06:37:36.478Z,11.70
2018-11-21T06:40:44.964Z,8.60
2018-11-21T06:43:46.628Z,9.83
2018-11-21T06:46:47.677Z,10.90
2018-11-21T06:49:48.774Z,10.30
2018-11-21T06:52:50.513Z,10.20
2018-11-21T06:58:58.191Z,12.80
2018-11-21T07:01:59.664Z,13.30
2018-11-21T07:05:01.183Z,12.67
2018-11-21T07:08:02.840Z,13.40
2018-11-21T07:11:03.608Z,11.50
2018-11-21T07:14:07.326Z,9.40
2018-11-21T07:17:06.553Z,9.17
2018-11-21T07:20:07.859Z,12.60
2018-11-21T07:23:08.778Z,10.93
2018-11-21T07:29:16.671Z,8.83
2018-11-21T07:32:18.478Z,12.73
2018-11-21T07:35:20.057Z,8.77
2018-11-21T07:38:21.327Z,9.67
2018-11-21T07:41:20.962Z,9.27
2018-11-21T07:44:29.319Z,10.80
2018-11-21T07:47:30.464Z,10.30
2018-11-21T07:50:31.907Z,11.43
2018-11-21T07:53:33.418Z,10.13
2018-11-21T07:59:41.207Z,9.57
2018-11-21T08:02:44.324Z,12.47
2018-11-21T08:05:50.888Z,9.20
2018-11-21T08:09:09.011Z,10.67
2018-11-21T08:12:29.572Z,10.30
2018-11-21T08:15:50.360Z,12.87
2018-11-21T08:19:18.533Z,8.80
2018-11-21T08:22:45.289Z,11.00
2018-11-21T08:25:55.204Z,11.27
2018-11-21T08:29:00.591Z,11.00
2018-11-21T08:32:02.194Z,9.80
2018-11-21T08:35:03.155Z,8.90
2018-11-21T08:38:04.179Z,10.50
2018-11-21T08:41:05.892Z,11.57
2018-11-21T08:44:07.516Z,7.90
2018-11-21T08:47:08.890Z,10.60
2018-11-21T08:50:09.882Z,8.50
2018-11-21T08:53:11.334Z,10.00
2018-11-21T08:56:12.197Z,11.33
2018-11-21T08:59:19.758Z,10.23
2018-11-21T09:02:21.608Z,7.70
2018-11-21T09:05:22.720Z,13.50
2018-11-21T09:08:24.203Z,9.50
2018-11-21T09:11:25.384Z,11.33
2018-11-21T09:14:25.645Z,11.17
2018-11-21T09:17:29.118Z,11.50
2018-11-21T09:20:28.704Z,12.70
2018-11-21T09:23:29.836Z,10.83
2018-11-21T09:26:29.530Z,10.50
2018-11-21T09:33:03.501Z,10.83
2018-11-21T09:36:04.819Z,10.63
2018-11-21T09:39:05.917Z,11.13
2018-11-21T09:42:07.021Z,13.07
2018-11-21T09:45:08.334Z,9.57
2018-11-21T09:48:09.909Z,10.13
2018-11-21T09:51:11.310Z,12.50
2018-11-21T09:54:12.156Z,10.80
2018-11-21T09:57:12.860Z,11.57
2018-11-21T10:03:22.088Z,11.73
2018-11-21T10:06:23.405Z,9.67
2018-11-21T10:09:33.563Z,11.13
2018-11-21T10:12:35.527Z,12.03
2018-11-21T10:15:36.852Z,13.60
2018-11-21T10:18:37.751Z,10.90
2018-11-21T10:21:46.294Z,9.53
2018-11-21T10:24:45.979Z,12.50
2018-11-21T10:34:07.281Z,10.07
2018-11-21T10:37:08.636Z,9.53
2018-11-21T10:40:10.164Z,11.40
2018-11-21T10:43:11.280Z,11.33
2018-11-21T10:46:10.987Z,8.70
2018-11-21T10:49:11.930Z,13.10
2018-11-21T10:52:13.098Z,11.90
2018-11-21T10:55:14.016Z,10.80
2018-11-21T10:58:14.999Z,13.67
2018-11-21T11:01:22.043Z,12.90
2018-11-21T11:04:30.108Z,9.97
2018-11-21T11:07:49.981Z,11.13
2018-11-21T11:11:09.783Z,12.10
2018-11-21T11:14:30.531Z,10.80
2018-11-21T11:17:50.782Z,10.90
2018-11-21T11:21:11.736Z,10.57
2018-11-21T11:24:31.562Z,13.43
2018-11-21T11:27:52.055Z,10.80
2018-11-21T11:31:12.434Z,11.33
2018-11-21T11:34:33.023Z,9.50
2018-11-21T11:37:40.334Z,10.13
2018-11-21T11:44:22.202Z,10.50
2018-11-21T11:47:42.721Z,9.90
2018-11-21T11:51:03.236Z,9.87
2018-11-21T11:54:24.060Z,11.43
2018-11-21T11:57:44.738Z,18.60
2018-11-21T12:00:57.465Z,10.63
2018-11-21T12:04:04.503Z,9.13
2018-11-21T12:07:25.427Z,11.80
2018-11-21T12:10:45.774Z,11.90
2018-11-21T12:14:04.980Z,9.77
2018-11-21T12:17:25.539Z,10.27
2018-11-21T12:20:45.921Z,11.53
2018-11-21T12:24:06.011Z,11.03
2018-11-21T12:27:26.546Z,9.83
2018-11-21T12:30:47.282Z,7.47
2018-11-21T12:34:05.825Z,13.10
2018-11-21T12:37:26.222Z,10.93
2018-11-21T12:40:38.698Z,12.30
2018-11-21T12:43:59.597Z,7.47
2018-11-21T12:47:20.526Z,8.37
2018-11-21T12:50:41.572Z,12.20
2018-11-21T12:54:01.312Z,8.27
2018-11-21T12:57:21.294Z,9.30
2018-11-21T13:00:50.246Z,10.90
2018-11-21T13:03:57.391Z,8.53
2018-11-21T13:07:17.337Z,10.07
2018-11-21T13:10:31.906Z,11.23
2018-11-21T13:13:52.450Z,11.10
2018-11-21T13:24:09.572Z,10.00
2018-11-21T13:27:33.114Z,10.43
2018-11-21T13:30:42.178Z,13.43
2018-11-21T13:37:21.028Z,9.37
2018-11-21T13:40:41.489Z,12.13
2018-11-21T13:44:02.059Z,10.40
2018-11-21T13:47:22.409Z,11.00
2018-11-21T13:50:42.648Z,11.13
2018-11-21T13:54:06.224Z,10.57
2018-11-21T13:57:07.281Z,12.90
2018-11-21T14:00:08.199Z,12.90
2018-11-21T14:03:09.291Z,12.67
2018-11-21T14:06:10.283Z,10.13
2018-11-21T14:12:24.590Z,13.03
2018-11-21T14:15:25.564Z,11.93
2018-11-21T14:18:29.440Z,12.73
2018-11-21T14:21:27.733Z,11.67
2018-11-21T14:24:29.351Z,14.53
2018-11-21T14:27:30.943Z,12.10
2018-11-21T14:30:32.165Z,9.70
2018-11-21T14:33:33.162Z,13.20
2018-11-21T14:43:14.374Z,11.90
2018-11-21T14:46:15.754Z,13.10
2018-11-21T14:49:16.570Z,12.83
2018-11-21T14:52:17.529Z,9.37
2018-11-21T14:55:19.005Z,11.57
2018-11-21T14:58:20.152Z,11.40
2018-11-21T15:01:21.755Z,10.60
2018-11-21T15:04:23.259Z,15.47
2018-11-21T15:07:24.648Z,15.07
2018-11-21T15:13:32.593Z,14.13
2018-11-21T15:16:39.817Z,12.10
2018-11-21T15:19:41.242Z,11.57
2018-11-21T15:22:42.834Z,10.87
2018-11-21T15:25:43.996Z,9.70
2018-11-21T15:28:44.736Z,13.00
2018-11-21T15:31:45.970Z,13.23
2018-11-21T15:34:47.412Z,11.10
2018-11-21T15:37:54.512Z,12.10
2018-11-21T15:44:09.748Z,12.80
2018-11-21T15:47:10.951Z,12.97
2018-11-21T15:50:13.987Z,11.23
2018-11-21T15:53:15.471Z,13.33
2018-11-21T15:56:18.920Z,11.80
2018-11-21T15:59:19.718Z,13.57
2018-11-21T16:02:20.890Z,14.80
2018-11-21T16:05:21.830Z,11.87
2018-11-21T16:08:23.282Z,11.63
2018-11-21T16:11:31.148Z,13.13
2018-11-21T16:14:32.931Z,14.80
2018-11-21T16:17:34.359Z,13.90
2018-11-21T16:20:34.452Z,14.20
2018-11-21T16:23:42.680Z,12.17
2018-11-21T16:26:43.973Z,10.57
2018-11-21T16:29:48.294Z,17.33
2018-11-21T16:32:49.895Z,12.20
2018-11-21T16:35:51.205Z,15.80
2018-11-21T16:38:52.508Z,16.60
2018-11-21T16:41:59.842Z,17.40
2018-11-21T16:45:02.015Z,14.10
2018-11-21T16:48:02.807Z,13.73
2018-11-21T16:51:04.124Z,12.23
2018-11-21T16:54:04.145Z,12.77
2018-11-21T16:57:12.741Z,13.80
2018-11-21T17:00:15.650Z,15.30
2018-11-21T17:03:16.568Z,11.27
2018-11-21T17:06:17.943Z,16.57
2018-11-21T17:09:19.293Z,16.20
2018-11-21T17:12:26.470Z,15.20
2018-11-21T17:15:29.979Z,17.77
2018-11-21T17:18:31.945Z,13.87
2018-11-21T17:21:33.058Z,14.90
2018-11-21T17:24:34.550Z,14.47
2018-11-21T17:27:36.280Z,10.70
2018-11-21T17:30:37.785Z,15.57
2018-11-21T17:33:38.698Z,18.20
2018-11-21T17:36:41.075Z,21.60
2018-11-21T17:39:42.252Z,18.77
2018-11-21T17:45:52.848Z,17.53
2018-11-21T17:48:53.981Z,16.30
2018-11-21T17:51:55.851Z,14.60
2018-11-21T17:54:57.338Z,12.83
2018-11-21T17:57:58.488Z,15.27
2018-11-21T18:00:59.142Z,16.33
2018-11-21T18:04:01.025Z,15.17
2018-11-21T18:07:02.075Z,15.70
2018-11-21T18:10:03.843Z,13.50
2018-11-21T18:16:11.239Z,16.77
2018-11-21T18:19:12.590Z,17.00
2018-11-21T18:22:14.526Z,16.73
2018-11-21T18:25:17.431Z,16.70
2018-11-21T18:28:19.233Z,19.50
2018-11-21T18:31:20.475Z,22.50
2018-11-21T18:34:21.959Z,19.47
2018-11-21T18:37:22.136Z,19.47
2018-11-21T18:46:58.711Z,20.37
2018-11-21T18:49:45.966Z,21.23
2018-11-21T18:52:33.579Z,15.37
2018-11-21T18:55:22.863Z,23.37
2018-11-21T18:58:34.320Z,18.40
2018-11-21T19:01:21.268Z,18.60
2018-11-21T19:04:08.506Z,18.90
2018-11-21T19:06:56.488Z,17.27
2018-11-21T19:09:43.679Z,18.67
2018-11-21T19:12:31.666Z,18.33
2018-11-21T19:15:18.821Z,17.53
2018-11-21T19:18:06.765Z,19.03
2018-11-21T19:20:54.024Z,18.83
2018-11-21T19:23:41.074Z,19.70
2018-11-21T19:26:28.324Z,19.57
2018-11-21T19:29:16.090Z,17.00
2018-11-21T19:32:03.406Z,18.80
2018-11-21T19:34:53.349Z,22.13
2018-11-21T19:37:39.123Z,19.47
2018-11-21T19:40:26.583Z,18.93
2018-11-21T19:43:14.617Z,20.73
2018-11-21T19:46:03.620Z,18.23
2018-11-21T19:48:51.592Z,16.77
2018-11-21T19:51:38.773Z,19.03
2018-11-21T19:54:26.060Z,18.00
2018-11-21T19:57:13.602Z,16.47
2018-11-21T20:00:01.111Z,17.60
2018-11-21T20:02:49.893Z,16.37
2018-11-21T20:05:40.454Z,17.83
2018-11-21T20:08:25.950Z,16.30
2018-11-21T20:11:13.753Z,17.33
2018-11-21T20:14:03.151Z,16.27
2018-11-21T20:19:46.064Z,17.60
2018-11-21T20:22:40.283Z,17.20
2018-11-21T20:25:28.983Z,14.50
2018-11-21T20:28:17.279Z,16.07
2018-11-21T20:31:06.061Z,17.33
2018-11-21T20:33:53.765Z,17.87
2018-11-21T20:36:40.983Z,14.73
2018-11-21T20:39:32.244Z,20.40
2018-11-21T20:42:19.550Z,15.70
2018-11-21T20:45:12.783Z,17.43
2018-11-21T20:48:01.238Z,15.27
2018-11-21T20:50:48.333Z,21.77
2018-11-21T20:53:38.277Z,32.50
2018-11-21T20:56:25.555Z,25.77
2018-11-21T20:59:12.594Z,19.90
2018-11-21T21:02:00.222Z,19.17
2018-11-21T21:04:47.993Z,16.63
2018-11-21T21:07:35.131Z,17.60
2018-11-21T21:10:24.688Z,17.53
2018-11-21T21:13:11.890Z,20.03
2018-11-21T21:15:58.954Z,16.70
2018-11-21T21:18:49.659Z,20.03
2018-11-21T21:21:37.341Z,18.30
2018-11-21T21:24:24.631Z,18.90
2018-11-21T21:27:12.301Z,17.80
2018-11-21T21:29:59.934Z,15.17
2018-11-21T21:32:50.226Z,17.60
2018-11-21T21:35:39.786Z,15.50
2018-11-21T21:38:29.892Z,18.40
2018-11-21T21:41:19.296Z,19.90
2018-11-21T21:44:05.207Z,19.27
2018-11-21T21:46:52.865Z,16.77
2018-11-21T21:49:41.901Z,17.70
2018-11-21T21:52:29.879Z,15.70
2018-11-21T21:55:21.882Z,16.57
2018-11-21T21:58:07.077Z,16.57
2018-11-21T22:00:54.449Z,16.63
2018-11-21T22:03:41.679Z,15.53
2018-11-21T22:06:28.885Z,22.07
2018-11-21T22:09:16.563Z,16.10
2018-11-21T22:12:04.730Z,23.60
2018-11-21T22:14:52.098Z,19.00
2018-11-21T22:17:39.928Z,19.30
2018-11-21T22:20:27.897Z,14.90
2018-11-21T22:23:15.242Z,17.80
2018-11-21T22:26:02.418Z,17.83
2018-11-21T22:28:49.625Z,16.60
2018-11-21T22:31:37.496Z,20.47
2018-11-21T22:34:25.171Z,18.50
2018-11-21T22:37:12.165Z,16.00
2018-11-21T22:39:59.914Z,14.77
2018-11-21T22:42:47.454Z,14.77
2018-11-21T22:45:35.000Z,20.10
2018-11-21T22:48:22.479Z,20.40
2018-11-21T22:51:10.152Z,17.90
2018-11-21T22:53:57.467Z,17.87
2018-11-21T22:56:45.455Z,18.20
2018-11-21T22:59:32.813Z,18.97
2018-11-21T23:02:21.194Z,19.47
2018-11-21T23:05:10.391Z,16.03
2018-11-21T23:07:57.733Z,14.83
2018-11-21T23:10:45.557Z,17.50
2018-11-21T23:13:33.131Z,21.63
2018-11-21T23:16:20.474Z,16.00
2018-11-21T23:19:08.394Z,14.37
2018-11-21T23:21:55.482Z,14.90
2018-11-21T23:24:42.979Z,17.63
2018-11-21T23:27:30.705Z,12.60
2018-11-21T23:30:18.683Z,14.40
2018-11-21T23:33:08.697Z,15.97
2018-11-21T23:35:53.805Z,15.90
2018-11-21T23:38:41.394Z,17.50
2018-11-21T23:41:28.924Z,17.10
2018-11-21T23:44:16.326Z,17.53
2018-11-21T23:47:04.599Z,15.90
2018-11-21T23:49:52.264Z,16.20
2018-11-21T23:52:39.744Z,18.70
2018-11-21T23:55:27.349Z,14.73
2018-11-21T23:58:14.881Z,16.03
